createdAt,value
2018-01-21T00:01:10.798Z,4.17
2018-01-21T00:03:38.894Z,6.87
2018-01-21T00:06:06.983Z,5.37
2018-01-21T00:08:35.154Z,3.85
2018-01-21T00:11:03.193Z,6.20
2018-01-21T00:13:31.250Z,4.78
2018-01-21T00:16:00.094Z,6.03
2018-01-21T00:18:29.263Z,6.90
2018-01-21T00:20:57.377Z,6.07
2018-01-21T00:23:25.437Z,9.88
2018-01-21T00:25:53.522Z,7.90
2018-01-21T00:28:21.588Z,7.65
2018-01-21T00:30:49.625Z,7.90
2018-01-21T00:33:18.453Z,7.33
2018-01-21T00:35:46.503Z,5.67
2018-01-21T00:38:14.565Z,8.13
2018-01-21T00:40:44.276Z,7.87
2018-01-21T00:43:13.109Z,6.63
2018-01-21T00:45:41.168Z,6.60
2018-01-21T00:48:09.215Z,10.10
2018-01-21T00:50:37.276Z,7.10
2018-01-21T00:53:05.333Z,10.83
2018-01-21T00:55:33.416Z,9.10
2018-01-21T00:58:01.486Z,6.70
2018-01-21T01:00:30.837Z,12.93
2018-01-21T01:03:00.781Z,12.20
2018-01-21T01:05:28.903Z,13.20
2018-01-21T01:07:56.955Z,11.83
2018-01-21T01:10:25.011Z,12.40
2018-01-21T01:12:53.758Z,14.97
2018-01-21T01:15:22.213Z,14.77
2018-01-21T01:17:50.266Z,12.83
2018-01-21T01:20:18.314Z,11.10
2018-01-21T01:22:47.142Z,13.63
2018-01-21T01:25:15.190Z,12.37
2018-01-21T01:27:44.045Z,15.57
2018-01-21T01:30:12.118Z,12.10
2018-01-21T01:32:40.186Z,17.80
2018-01-21T01:35:08.262Z,12.00
2018-01-21T01:37:36.354Z,11.80
2018-01-21T01:40:05.229Z,16.50
2018-01-21T01:42:33.304Z,12.73
2018-01-21T01:45:03.047Z,14.77
2018-01-21T01:47:31.100Z,12.10
2018-01-21T01:49:59.701Z,14.57
2018-01-21T01:52:27.771Z,12.43
2018-01-21T01:54:56.764Z,20.17
2018-01-21T01:57:24.869Z,10.10
2018-01-21T01:59:53.729Z,15.23
2018-01-21T02:02:21.794Z,10.90
2018-01-21T02:04:49.849Z,13.83
2018-01-21T02:07:17.901Z,15.30
2018-01-21T02:09:46.730Z,12.33
2018-01-21T02:12:14.825Z,13.53
2018-01-21T02:14:42.889Z,14.40
2018-01-21T02:17:10.982Z,15.07
2018-01-21T02:19:39.045Z,13.73
2018-01-21T02:22:07.088Z,19.37
2018-01-21T02:24:35.205Z,16.33
2018-01-21T02:27:03.286Z,20.17
2018-01-21T02:29:32.098Z,17.30
2018-01-21T02:32:01.395Z,13.97
2018-01-21T02:34:29.453Z,13.47
2018-01-21T02:36:57.535Z,15.20
2018-01-21T02:39:25.598Z,15.07
2018-01-21T02:41:53.647Z,11.57
2018-01-21T02:44:21.710Z,13.73
2018-01-21T02:46:50.530Z,15.30
2018-01-21T02:49:18.642Z,15.00
2018-01-21T02:51:46.739Z,15.67
2018-01-21T02:54:14.786Z,12.03
2018-01-21T02:56:43.269Z,10.73
2018-01-21T02:59:11.909Z,12.57
2018-01-21T03:01:40.024Z,14.40
2018-01-21T03:04:08.103Z,14.33
2018-01-21T03:06:36.146Z,13.15
2018-01-21T03:09:04.209Z,12.33
2018-01-21T03:11:33.064Z,13.83
2018-01-21T03:14:01.123Z,10.87
2018-01-21T03:16:29.174Z,11.40
2018-01-21T03:18:57.227Z,10.57
2018-01-21T03:21:26.049Z,13.80
2018-01-21T03:23:54.115Z,16.37
2018-01-21T03:26:22.945Z,13.10
2018-01-21T03:28:51.021Z,13.62
2018-01-21T03:31:19.167Z,10.60
2018-01-21T03:33:47.232Z,10.63
2018-01-21T03:36:16.061Z,12.20
2018-01-21T03:38:44.158Z,15.30
2018-01-21T03:41:12.220Z,14.60
2018-01-21T03:43:40.281Z,14.63
2018-01-21T03:46:08.341Z,12.20
2018-01-21T03:48:36.406Z,7.23
2018-01-21T03:51:04.534Z,14.80
2018-01-21T03:53:32.603Z,11.30
2018-01-21T03:56:00.674Z,14.53
2018-01-21T03:58:28.729Z,13.77
2018-01-21T04:00:56.783Z,14.93
2018-01-21T04:03:25.609Z,13.40
2018-01-21T04:05:53.664Z,12.80
2018-01-21T04:08:21.729Z,13.83
2018-01-21T04:10:50.546Z,12.93
2018-01-21T04:13:19.060Z,14.60
2018-01-21T04:15:47.109Z,14.13
2018-01-21T04:18:15.157Z,16.17
2018-01-21T04:20:43.986Z,14.40
2018-01-21T04:23:12.047Z,12.23
2018-01-21T04:25:40.106Z,12.53
2018-01-21T04:28:08.945Z,14.20
2018-01-21T04:30:37.012Z,9.13
2018-01-21T04:33:05.065Z,16.40
2018-01-21T04:35:33.125Z,13.60
2018-01-21T04:38:03.060Z,9.87
2018-01-21T04:40:31.117Z,10.83
2018-01-21T04:42:59.937Z,10.93
2018-01-21T04:45:28.418Z,13.47
2018-01-21T04:47:56.506Z,11.97
2018-01-21T04:50:24.567Z,12.67
2018-01-21T04:52:52.622Z,13.10
2018-01-21T04:55:21.473Z,13.10
2018-01-21T04:57:49.629Z,15.83
2018-01-21T05:00:17.721Z,11.80
2018-01-21T05:02:45.806Z,14.73
2018-01-21T05:05:13.885Z,12.50
2018-01-21T05:07:41.965Z,11.87
2018-01-21T05:10:10.034Z,8.30
2018-01-21T05:12:38.097Z,9.98
2018-01-21T05:15:06.186Z,9.53
2018-01-21T05:17:34.261Z,8.80
2018-01-21T05:20:03.467Z,10.67
2018-01-21T05:22:32.462Z,12.60
2018-01-21T05:25:00.522Z,9.38
2018-01-21T05:27:28.582Z,7.93
2018-01-21T05:29:56.638Z,8.07
2018-01-21T05:32:25.447Z,8.23
2018-01-21T05:34:53.514Z,8.00
2018-01-21T05:37:21.558Z,7.62
2018-01-21T05:39:49.614Z,7.37
2018-01-21T05:42:17.670Z,9.50
2018-01-21T05:44:45.726Z,7.75
2018-01-21T05:47:13.829Z,9.00
2018-01-21T05:49:41.890Z,10.10
2018-01-21T05:52:09.949Z,7.60
2018-01-21T05:54:38.006Z,7.90
2018-01-21T05:57:06.818Z,5.43
2018-01-21T05:59:38.012Z,8.73
2018-01-21T06:02:06.050Z,4.62
2018-01-21T06:04:34.153Z,4.50
2018-01-21T06:07:02.218Z,4.83
2018-01-21T06:09:30.278Z,6.03
2018-01-21T06:11:58.389Z,4.37
2018-01-21T06:14:26.453Z,7.87
2018-01-21T06:16:54.543Z,8.00
2018-01-21T06:19:22.606Z,6.10
2018-01-21T06:21:50.663Z,6.20
2018-01-21T06:24:18.774Z,6.30
2018-01-21T06:26:46.838Z,6.37
2018-01-21T06:29:14.930Z,6.17
2018-01-21T06:31:45.096Z,5.73
2018-01-21T06:34:13.905Z,5.07
2018-01-21T06:36:41.966Z,9.50
2018-01-21T06:39:10.804Z,6.27
2018-01-21T06:41:38.861Z,12.27
2018-01-21T06:44:06.920Z,7.60
2018-01-21T06:46:34.966Z,7.90
2018-01-21T06:49:03.110Z,10.30
2018-01-21T06:51:31.161Z,8.20
2018-01-21T06:53:59.242Z,7.63
2018-01-21T06:56:27.281Z,8.10
2018-01-21T06:58:56.094Z,5.93
2018-01-21T07:01:24.145Z,13.10
2018-01-21T07:03:52.965Z,8.30
2018-01-21T07:06:21.085Z,11.23
2018-01-21T07:08:49.138Z,9.20
2018-01-21T07:11:17.239Z,11.60
2018-01-21T07:13:45.306Z,13.30
2018-01-21T07:16:13.437Z,11.53
2018-01-21T07:18:42.288Z,11.73
2018-01-21T07:21:10.354Z,8.70
2018-01-21T07:23:38.430Z,13.30
2018-01-21T07:26:06.494Z,8.13
2018-01-21T07:28:35.393Z,9.45
2018-01-21T07:31:03.474Z,13.03
2018-01-21T07:33:32.318Z,8.20
2018-01-21T07:36:01.143Z,6.93
2018-01-21T07:38:29.205Z,8.13
2018-01-21T07:40:57.257Z,8.03
2018-01-21T07:43:26.106Z,7.90
2018-01-21T07:45:54.182Z,11.17
2018-01-21T07:48:22.234Z,9.80
2018-01-21T07:50:50.298Z,7.60
2018-01-21T07:53:18.366Z,9.90
2018-01-21T07:55:47.276Z,8.17
2018-01-21T07:58:15.313Z,8.07
2018-01-21T08:00:43.472Z,5.10
2018-01-21T08:03:11.542Z,5.90
2018-01-21T08:05:39.618Z,7.10
2018-01-21T08:08:07.685Z,5.37
2018-01-21T08:10:36.076Z,5.65
2018-01-21T08:13:04.153Z,9.10
2018-01-21T08:15:32.296Z,7.10
2018-01-21T08:18:00.817Z,9.97
2018-01-21T08:20:28.898Z,5.27
2018-01-21T08:22:56.937Z,8.40
2018-01-21T08:25:25.021Z,7.00
2018-01-21T08:27:53.086Z,8.20
2018-01-21T08:30:21.197Z,5.60
2018-01-21T08:32:49.246Z,5.68
2018-01-21T08:35:22.951Z,4.23
2018-01-21T08:37:56.545Z,5.70
2018-01-21T08:40:30.070Z,6.00
2018-01-21T08:42:58.121Z,7.53
2018-01-21T08:45:26.240Z,5.90
2018-01-21T08:47:54.282Z,5.40
2018-01-21T08:50:22.380Z,4.80
2018-01-21T08:52:50.442Z,5.87
2018-01-21T08:55:18.502Z,7.18
2018-01-21T08:57:46.579Z,5.53
2018-01-21T09:00:15.901Z,4.20
2018-01-21T09:02:43.954Z,5.57
2018-01-21T09:05:12.047Z,5.10
2018-01-21T09:07:40.141Z,6.60
2018-01-21T09:10:08.218Z,8.10
2018-01-21T09:12:36.935Z,7.35
2018-01-21T09:15:05.096Z,7.13
2018-01-21T09:17:33.161Z,6.80
2018-01-21T09:20:01.226Z,7.40
2018-01-21T09:22:29.285Z,5.60
2018-01-21T09:24:57.326Z,8.27
2018-01-21T09:27:25.381Z,5.40
2018-01-21T09:29:53.425Z,7.10
2018-01-21T09:32:21.524Z,8.00
2018-01-21T09:34:49.581Z,6.53
2018-01-21T09:37:17.653Z,6.93
2018-01-21T09:39:45.764Z,6.20
2018-01-21T09:42:13.818Z,8.13
2018-01-21T09:44:41.902Z,4.90
2018-01-21T09:47:09.973Z,10.70
2018-01-21T09:49:38.026Z,11.87
2018-01-21T09:52:07.205Z,9.27
2018-01-21T09:54:36.011Z,9.50
2018-01-21T09:57:04.086Z,8.53
2018-01-21T09:59:32.921Z,6.40
2018-01-21T10:02:01.002Z,8.60
2018-01-21T10:04:29.054Z,7.53
2018-01-21T10:06:57.114Z,7.97
2018-01-21T10:09:25.223Z,11.83
2018-01-21T10:11:53.277Z,8.17
2018-01-21T10:14:21.375Z,7.27
2018-01-21T10:16:49.442Z,9.80
2018-01-21T10:19:17.527Z,9.43
2018-01-21T10:21:45.603Z,6.43
2018-01-21T10:24:13.648Z,7.27
2018-01-21T10:26:41.755Z,8.40
2018-01-21T10:29:10.257Z,9.43
2018-01-21T10:31:38.325Z,6.83
2018-01-21T10:34:06.400Z,10.47
2018-01-21T10:36:34.469Z,7.80
2018-01-21T10:39:02.509Z,7.90
2018-01-21T10:41:30.565Z,6.13
2018-01-21T10:43:59.417Z,11.50
2018-01-21T10:46:27.473Z,5.87
2018-01-21T10:48:55.560Z,6.53
2018-01-21T10:51:23.613Z,9.67
2018-01-21T10:53:51.766Z,5.23
2018-01-21T10:56:19.821Z,4.70
2018-01-21T10:58:49.531Z,6.20
2018-01-21T11:01:17.541Z,9.45
2018-01-21T11:03:45.661Z,8.60
2018-01-21T11:06:13.738Z,5.73
2018-01-21T11:08:41.816Z,7.07
2018-01-21T11:11:09.861Z,7.37
2018-01-21T11:13:38.894Z,8.80
2018-01-21T11:16:06.959Z,10.20
2018-01-21T11:18:35.026Z,7.80
2018-01-21T11:21:03.090Z,7.00
2018-01-21T11:23:31.145Z,6.93
2018-01-21T11:25:59.963Z,10.00
2018-01-21T11:28:28.037Z,5.35
2018-01-21T11:30:56.107Z,8.00
2018-01-21T11:33:24.154Z,9.70
2018-01-21T11:35:53.013Z,6.50
2018-01-21T11:38:21.090Z,8.27
2018-01-21T11:40:49.148Z,8.82
2018-01-21T11:43:17.214Z,6.87
2018-01-21T11:45:45.270Z,7.53
2018-01-21T11:48:13.390Z,9.95
2018-01-21T11:50:43.950Z,9.37
2018-01-21T11:53:11.998Z,8.47
2018-01-21T11:55:40.063Z,10.03
2018-01-21T11:58:08.151Z,9.07
2018-01-21T12:00:36.215Z,17.10
2018-01-21T12:03:04.942Z,12.30
2018-01-21T12:05:33.102Z,8.03
2018-01-21T12:08:01.173Z,5.10
2018-01-21T12:10:29.238Z,7.87
2018-01-21T12:12:57.293Z,8.53
2018-01-21T12:15:25.373Z,10.83
2018-01-21T12:17:53.478Z,8.88
2018-01-21T12:20:21.599Z,9.60
2018-01-21T12:22:52.384Z,8.83
2018-01-21T12:25:20.474Z,5.93
2018-01-21T12:27:48.534Z,9.30
2018-01-21T12:30:16.620Z,6.00
2018-01-21T12:32:44.669Z,6.45
2018-01-21T12:35:12.778Z,7.17
2018-01-21T12:37:40.838Z,6.40
2018-01-21T12:40:10.828Z,13.67
2018-01-21T12:42:40.781Z,5.53
2018-01-21T12:45:08.870Z,6.77
2018-01-21T12:47:36.937Z,7.47
2018-01-21T12:50:05.036Z,8.37
2018-01-21T12:52:33.082Z,11.20
2018-01-21T12:55:01.143Z,8.63
2018-01-21T12:57:29.287Z,5.57
2018-01-21T12:59:58.156Z,5.33
2018-01-21T13:02:26.221Z,7.17
2018-01-21T13:04:54.286Z,7.03
2018-01-21T13:07:22.379Z,8.67
2018-01-21T13:09:50.488Z,5.37
2018-01-21T13:12:18.522Z,6.77
2018-01-21T13:14:46.601Z,6.10
2018-01-21T13:17:14.661Z,4.78
2018-01-21T13:19:42.749Z,7.82
2018-01-21T13:22:10.825Z,6.90
2018-01-21T13:24:38.907Z,6.40
2018-01-21T13:27:06.985Z,6.33
2018-01-21T13:29:35.042Z,4.93
2018-01-21T13:32:03.097Z,11.07
2018-01-21T13:34:31.150Z,6.43
2018-01-21T13:36:59.219Z,3.90
2018-01-21T13:39:27.269Z,6.67
2018-01-21T13:41:55.329Z,6.80
2018-01-21T13:44:23.409Z,4.57
2018-01-21T13:46:51.512Z,4.13
2018-01-21T13:49:19.565Z,6.33
2018-01-21T13:51:47.635Z,6.03
2018-01-21T13:54:15.694Z,5.00
2018-01-21T13:56:43.789Z,4.70
2018-01-21T13:59:11.922Z,7.17
2018-01-21T14:01:41.888Z,4.13
2018-01-21T14:04:09.952Z,4.00
2018-01-21T14:06:38.046Z,5.07
2018-01-21T14:09:11.931Z,4.77
2018-01-21T14:11:39.970Z,5.60
2018-01-21T14:14:08.821Z,4.30
2018-01-21T14:16:36.890Z,5.47
2018-01-21T14:19:05.003Z,3.63
2018-01-21T14:21:33.050Z,3.23
2018-01-21T14:24:01.113Z,6.60
2018-01-21T14:26:29.264Z,6.20
2018-01-21T14:28:58.158Z,4.80
2018-01-21T14:31:27.014Z,3.23
2018-01-21T14:33:55.063Z,6.60
2018-01-21T14:36:23.188Z,4.70
2018-01-21T14:38:51.246Z,4.33
2018-01-21T14:41:19.786Z,10.17
2018-01-21T14:43:47.852Z,4.63
2018-01-21T14:46:16.036Z,5.05
2018-01-21T14:48:44.565Z,4.53
2018-01-21T14:51:12.625Z,5.10
2018-01-21T14:53:40.701Z,7.77
2018-01-21T14:56:08.822Z,5.37
2018-01-21T14:58:38.393Z,14.90
2018-01-21T15:01:06.454Z,14.70
2018-01-21T15:03:35.166Z,7.67
2018-01-21T15:06:03.271Z,6.23
2018-01-21T15:08:31.329Z,9.43
2018-01-21T15:10:59.490Z,9.20
2018-01-21T15:13:27.533Z,7.70
2018-01-21T15:15:55.609Z,7.30
2018-01-21T15:18:23.697Z,10.10
2018-01-21T15:20:51.797Z,10.13
2018-01-21T15:23:19.871Z,5.20
2018-01-21T15:25:48.189Z,9.67
2018-01-21T15:28:17.025Z,8.00
2018-01-21T15:30:45.071Z,7.70
2018-01-21T15:33:13.960Z,5.27
2018-01-21T15:35:43.021Z,6.30
2018-01-21T15:38:11.128Z,8.00
2018-01-21T15:40:39.193Z,8.52
2018-01-21T15:43:07.242Z,12.93
2018-01-21T15:45:35.309Z,11.00
2018-01-21T15:48:03.449Z,10.97
2018-01-21T15:50:32.294Z,10.43
2018-01-21T15:53:00.404Z,8.07
2018-01-21T15:55:28.508Z,10.00
2018-01-21T15:57:57.334Z,8.40
2018-01-21T16:00:25.444Z,12.00
2018-01-21T16:02:53.566Z,10.27
2018-01-21T16:05:21.620Z,11.37
2018-01-21T16:07:50.433Z,12.60
2018-01-21T16:10:18.499Z,8.13
2018-01-21T16:12:46.545Z,7.07
2018-01-21T16:15:15.412Z,8.10
2018-01-21T16:17:43.901Z,11.20
2018-01-21T16:20:12.142Z,8.10
2018-01-21T16:22:40.177Z,8.53
2018-01-21T16:25:08.280Z,9.60
2018-01-21T16:27:37.087Z,9.33
2018-01-21T16:30:05.131Z,8.73
2018-01-21T16:32:33.996Z,10.67
2018-01-21T16:35:02.137Z,7.77
2018-01-21T16:37:48.010Z,9.18
2018-01-21T16:40:16.125Z,11.30
2018-01-21T16:42:44.444Z,5.75
2018-01-21T16:45:12.533Z,7.90
2018-01-21T16:47:41.574Z,6.23
2018-01-21T16:50:09.624Z,8.13
2018-01-21T16:52:37.772Z,11.90
2018-01-21T16:55:06.668Z,8.70
2018-01-21T16:57:34.712Z,7.27
2018-01-21T17:00:03.353Z,10.23
2018-01-21T17:02:32.232Z,12.53
2018-01-21T17:05:01.046Z,9.30
2018-01-21T17:07:29.134Z,10.60
2018-01-21T17:09:57.185Z,12.23
2018-01-21T17:12:26.033Z,16.43
2018-01-21T17:14:54.061Z,8.47
2018-01-21T17:17:22.181Z,7.47
2018-01-21T17:19:50.261Z,19.30
2018-01-21T17:22:18.322Z,8.33
2018-01-21T17:24:46.414Z,11.30
2018-01-21T17:27:15.930Z,10.20
2018-01-21T17:29:45.116Z,7.67
2018-01-21T17:32:13.220Z,9.18
2018-01-21T17:34:41.327Z,10.85
2018-01-21T17:37:10.138Z,5.80
2018-01-21T17:39:38.253Z,7.43
2018-01-21T17:42:06.343Z,8.97
2018-01-21T17:44:35.894Z,16.45
2018-01-21T17:47:04.013Z,11.70
2018-01-21T17:49:32.107Z,11.17
2018-01-21T17:52:00.257Z,9.70
2018-01-21T17:54:28.309Z,13.73
2018-01-21T17:56:56.378Z,11.10
2018-01-21T17:59:24.504Z,11.17
2018-01-21T18:01:52.549Z,8.57
2018-01-21T18:04:20.644Z,15.57
2018-01-21T18:06:48.713Z,11.90
2018-01-21T18:09:17.014Z,14.65
2018-01-21T18:11:45.798Z,10.38
2018-01-21T18:14:14.506Z,13.77
2018-01-21T18:16:42.603Z,12.17
2018-01-21T18:19:10.733Z,10.77
2018-01-21T18:21:38.856Z,15.00
2018-01-21T18:24:06.913Z,15.07
2018-01-21T18:26:35.074Z,18.33
2018-01-21T18:29:03.181Z,9.77
2018-01-21T18:31:31.288Z,10.45
2018-01-21T18:34:00.145Z,11.15
2018-01-21T18:36:28.283Z,15.60
2018-01-21T18:38:56.365Z,12.77
2018-01-21T18:41:25.217Z,14.50
2018-01-21T18:43:54.084Z,13.62
2018-01-21T18:46:22.839Z,18.03
2018-01-21T18:48:50.874Z,15.40
2018-01-21T18:51:19.691Z,18.47
2018-01-21T18:53:47.805Z,13.83
2018-01-21T18:56:17.220Z,13.75
2018-01-21T18:58:46.438Z,16.10
2018-01-21T19:01:14.586Z,26.77
2018-01-21T19:03:42.706Z,19.90
2018-01-21T19:06:10.746Z,17.07
2018-01-21T19:08:38.901Z,18.80
2018-01-21T19:11:07.050Z,13.60
2018-01-21T19:13:35.937Z,18.23
2018-01-21T19:16:04.798Z,16.03
2018-01-21T19:18:34.650Z,18.77
2018-01-21T19:21:03.531Z,110.23
2018-01-21T19:23:33.137Z,25.90
2018-01-21T19:26:01.182Z,16.40
2018-01-21T19:28:29.302Z,20.70
2018-01-21T19:30:57.346Z,16.33
2018-01-21T19:33:25.521Z,29.47
2018-01-21T19:35:53.703Z,34.70
2018-01-21T19:38:25.572Z,64.00
2018-01-21T19:40:53.665Z,25.87
2018-01-21T19:43:36.310Z,33.03
2018-01-21T19:46:04.419Z,18.63
2018-01-21T19:48:32.557Z,145.27
2018-01-21T19:51:01.390Z,76.67
2018-01-21T19:53:29.457Z,55.87
2018-01-21T19:55:57.594Z,24.23
2018-01-21T19:58:26.485Z,21.00
2018-01-21T20:00:55.341Z,25.50
2018-01-21T20:03:23.445Z,23.80
2018-01-21T20:05:51.537Z,20.62
2018-01-21T20:08:20.425Z,19.70
2018-01-21T20:10:49.298Z,202.40
2018-01-21T20:13:17.430Z,369.50
2018-01-21T20:15:45.525Z,149.43
2018-01-21T20:18:13.598Z,55.47
2018-01-21T20:20:41.724Z,45.93
2018-01-21T20:23:10.611Z,24.37
2018-01-21T20:25:38.758Z,25.60
2018-01-21T20:28:06.984Z,33.37
2018-01-21T20:30:35.873Z,30.13
2018-01-21T20:33:04.695Z,23.23
2018-01-21T20:35:32.770Z,22.20
2018-01-21T20:38:01.754Z,22.40
2018-01-21T20:40:30.622Z,29.93
2018-01-21T20:42:58.934Z,22.03
2018-01-21T20:45:27.745Z,26.80
2018-01-21T20:47:55.806Z,21.47
2018-01-21T20:50:23.874Z,19.33
2018-01-21T20:52:52.731Z,18.80
2018-01-21T20:55:20.870Z,14.70
2018-01-21T20:57:48.957Z,21.67
2018-01-21T21:00:17.853Z,13.82
2018-01-21T21:02:45.941Z,19.53
2018-01-21T21:05:14.053Z,19.23
2018-01-21T21:07:42.929Z,20.30
2018-01-21T21:10:11.032Z,26.80
2018-01-21T21:12:39.862Z,18.07
2018-01-21T21:15:08.542Z,22.52
2018-01-21T21:17:36.797Z,18.23
2018-01-21T21:20:05.614Z,17.30
2018-01-21T21:22:34.221Z,18.90
2018-01-21T21:25:03.105Z,23.00
2018-01-21T21:27:31.202Z,16.20
2018-01-21T21:29:59.419Z,14.30
2018-01-21T21:32:27.504Z,17.80
2018-01-21T21:34:56.317Z,16.50
2018-01-21T21:37:24.502Z,16.57
2018-01-21T21:39:52.658Z,15.90
2018-01-21T21:42:21.559Z,18.20
2018-01-21T21:44:50.429Z,18.87
2018-01-21T21:47:20.504Z,17.67
2018-01-21T21:49:48.609Z,20.60
2018-01-21T21:52:16.741Z,17.33
2018-01-21T21:54:44.868Z,21.77
2018-01-21T21:57:12.968Z,16.63
2018-01-21T21:59:41.165Z,17.77
2018-01-21T22:02:10.037Z,26.97
2018-01-21T22:04:38.094Z,22.90
2018-01-21T22:07:06.150Z,27.87
2018-01-21T22:09:34.235Z,22.30
2018-01-21T22:12:02.343Z,24.33
2018-01-21T22:14:30.430Z,29.73
2018-01-21T22:16:59.842Z,22.37
2018-01-21T22:19:28.676Z,29.33
2018-01-21T22:21:56.816Z,26.17
2018-01-21T22:24:25.762Z,23.73
2018-01-21T22:26:53.988Z,38.70
2018-01-21T22:29:22.048Z,19.37
2018-01-21T22:31:50.139Z,20.80
2018-01-21T22:34:19.790Z,21.80
2018-01-21T22:36:49.015Z,20.93
2018-01-21T22:39:17.120Z,22.20
2018-01-21T22:41:45.161Z,19.93
2018-01-21T22:44:13.352Z,16.40
2018-01-21T22:46:41.406Z,17.73
2018-01-21T22:49:09.475Z,13.90
2018-01-21T22:51:37.529Z,20.10
2018-01-21T22:54:05.613Z,21.63
2018-01-21T22:56:33.716Z,17.70
2018-01-21T22:59:01.807Z,14.80
2018-01-21T23:01:30.346Z,16.70
2018-01-21T23:03:58.557Z,14.93
2018-01-21T23:06:26.620Z,16.13
2018-01-21T23:08:54.736Z,21.47
2018-01-21T23:11:22.893Z,18.47
2018-01-21T23:13:50.979Z,22.30
2018-01-21T23:16:20.289Z,24.27
2018-01-21T23:18:50.229Z,19.87
2018-01-21T23:21:20.217Z,20.23
2018-01-21T23:23:49.397Z,23.00
2018-01-21T23:26:17.488Z,17.77
2018-01-21T23:28:45.556Z,10.27
2018-01-21T23:31:13.642Z,18.02
2018-01-21T23:33:44.286Z,15.07
2018-01-21T23:36:12.358Z,15.10
2018-01-21T23:38:40.434Z,13.30
2018-01-21T23:41:08.597Z,15.13
2018-01-21T23:43:36.657Z,20.97
2018-01-21T23:46:04.729Z,18.10
2018-01-21T23:48:32.842Z,15.88
2018-01-21T23:51:00.910Z,11.55
2018-01-21T23:53:28.978Z,16.27
2018-01-21T23:55:57.050Z,9.53
2018-01-21T23:58:25.114Z,11.53
